Time,TemperatureF,DewpointF,PressureIn,WindDirection,WindDirectionDegrees,WindSpeedMPH,WindSpeedGustMPH,Humidity,HourlyPrecipIn,Conditions,Clouds,dailyrainin,SolarRadiationWatts/m^2,SoftwareType,DateUTC
2013-02-03 00:01:00,30.0,19.0,-100.00,WNW,299,5.0,7.0,62,0.00,,,0.00,0.000000,,2013-02-03 07:01:00,
2013-02-03 00:11:00,30.0,19.0,-100.00,WNW,299,5.0,7.0,62,0.00,,,0.00,0.000000,,2013-02-03 07:11:00,
2013-02-03 00:21:00,30.0,19.0,-100.00,WNW,299,5.0,7.0,62,0.00,,,0.00,0.000000,,2013-02-03 07:21:00,
2013-02-03 00:31:00,30.0,19.0,-100.00,WNW,299,5.0,7.0,62,0.00,,,0.00,0.000000,,2013-02-03 07:31:00,
2013-02-03 01:01:00,30.0,18.0,-100.00,WNW,296,4.0,7.0,60,0.00,,,0.00,0.000000,,2013-02-03 08:01:00,
2013-02-03 01:11:00,30.0,18.0,-100.00,WNW,296,4.0,7.0,60,0.00,,,0.00,0.000000,,2013-02-03 08:11:00,
2013-02-03 01:22:00,30.0,18.0,-100.00,WNW,296,4.0,7.0,60,0.00,,,0.00,0.000000,,2013-02-03 08:22:00,
2013-02-03 01:32:00,30.0,18.0,-100.00,WNW,296,4.0,7.0,60,0.00,,,0.00,0.000000,,2013-02-03 08:32:00,
2013-02-03 02:02:00,29.0,18.0,-100.00,WNW,302,5.0,8.0,64,0.00,,,0.00,0.000000,,2013-02-03 09:02:00,
2013-02-03 02:11:00,29.0,18.0,-100.00,WNW,302,5.0,8.0,64,0.00,,,0.00,0.000000,,2013-02-03 09:11:00,
2013-02-03 02:21:00,29.0,18.0,-100.00,WNW,302,5.0,8.0,64,0.00,,,0.00,0.000000,,2013-02-03 09:21:00,
2013-02-03 02:31:00,29.0,18.0,-100.00,WNW,302,5.0,8.0,64,0.00,,,0.00,0.000000,,2013-02-03 09:31:00,
2013-02-03 03:01:00,32.0,19.0,-100.00,WSW,255,5.0,10.0,57,0.00,,,0.00,1.000000,,2013-02-03 10:01:00,
2013-02-03 03:11:00,32.0,19.0,-100.00,WSW,255,5.0,10.0,57,0.00,,,0.00,1.000000,,2013-02-03 10:11:00,
2013-02-03 03:21:00,32.0,19.0,-100.00,WSW,255,5.0,10.0,57,0.00,,,0.00,1.000000,,2013-02-03 10:21:00,
2013-02-03 03:31:00,32.0,19.0,-100.00,WSW,255,5.0,10.0,57,0.00,,,0.00,1.000000,,2013-02-03 10:31:00,
2013-02-03 03:53:00,32.0,18.0,-100.00,WSW,257,5.0,10.0,55,0.00,,,0.00,0.000000,,2013-02-03 10:53:00,
2013-02-03 04:02:00,32.0,18.0,-100.00,WSW,257,5.0,10.0,55,0.00,,,0.00,0.000000,,2013-02-03 11:02:00,
2013-02-03 04:11:00,32.0,18.0,-100.00,WSW,257,5.0,10.0,55,0.00,,,0.00,0.000000,,2013-02-03 11:11:00,
2013-02-03 04:22:00,32.0,18.0,-100.00,WSW,257,5.0,10.0,55,0.00,,,0.00,0.000000,,2013-02-03 11:22:00,
2013-02-03 04:32:00,32.0,18.0,-100.00,WSW,257,5.0,10.0,55,0.00,,,0.00,0.000000,,2013-02-03 11:32:00,
2013-02-03 04:52:00,32.0,17.0,-100.00,WSW,253,5.0,12.0,53,0.00,,,0.00,0.000000,,2013-02-03 11:52:00,
2013-02-03 05:02:00,32.0,17.0,-100.00,WSW,253,5.0,12.0,53,0.00,,,0.00,0.000000,,2013-02-03 12:02:00,
2013-02-03 05:11:00,32.0,17.0,-100.00,WSW,253,5.0,12.0,53,0.00,,,0.00,0.000000,,2013-02-03 12:11:00,
2013-02-03 05:22:00,32.0,17.0,-100.00,WSW,253,5.0,12.0,53,0.00,,,0.00,0.000000,,2013-02-03 12:22:00,
2013-02-03 05:32:00,32.0,17.0,-100.00,WSW,253,5.0,12.0,53,0.00,,,0.00,0.000000,,2013-02-03 12:32:00,
2013-02-03 06:03:00,32.0,17.0,-100.00,West,267,6.0,14.0,54,0.00,,,0.00,0.000000,,2013-02-03 13:03:00,
2013-02-03 06:11:00,32.0,17.0,-100.00,West,267,6.0,14.0,54,0.00,,,0.00,0.000000,,2013-02-03 13:11:00,
2013-02-03 06:21:00,32.0,17.0,-100.00,West,267,6.0,14.0,54,0.00,,,0.00,0.000000,,2013-02-03 13:21:00,
2013-02-03 06:32:00,32.0,17.0,-100.00,West,267,6.0,14.0,54,0.00,,,0.00,0.000000,,2013-02-03 13:32:00,
2013-02-03 07:02:00,31.0,17.0,-100.00,WNW,286,5.0,11.0,55,0.00,,,0.00,0.000000,,2013-02-03 14:02:00,
2013-02-03 07:11:00,31.0,17.0,-100.00,WNW,286,5.0,11.0,55,0.00,,,0.00,0.000000,,2013-02-03 14:11:00,
2013-02-03 07:21:00,31.0,17.0,-100.00,WNW,286,5.0,11.0,55,0.00,,,0.00,0.000000,,2013-02-03 14:21:00,
2013-02-03 07:32:00,31.0,17.0,-100.00,WNW,286,5.0,11.0,55,0.00,,,0.00,0.000000,,2013-02-03 14:32:00,
2013-02-03 08:03:00,32.0,16.0,-100.00,West,269,4.0,10.0,52,0.00,,,0.00,7.000000,,2013-02-03 15:03:00,
2013-02-03 08:11:00,32.0,16.0,-100.00,West,269,4.0,10.0,52,0.00,,,0.00,7.000000,,2013-02-03 15:11:00,
2013-02-03 08:22:00,32.0,16.0,-100.00,West,269,4.0,10.0,52,0.00,,,0.00,7.000000,,2013-02-03 15:22:00,
2013-02-03 08:33:00,32.0,16.0,-100.00,West,269,4.0,10.0,52,0.00,,,0.00,7.000000,,2013-02-03 15:33:00,
2013-02-03 09:02:00,35.0,16.0,-100.00,NW,312,3.0,10.0,46,0.00,,,0.00,82.000000,,2013-02-03 16:02:00,
2013-02-03 09:11:00,35.0,16.0,-100.00,NW,312,3.0,10.0,46,0.00,,,0.00,82.000000,,2013-02-03 16:11:00,
2013-02-03 09:22:00,35.0,16.0,-100.00,NW,312,3.0,10.0,46,0.00,,,0.00,82.000000,,2013-02-03 16:22:00,
2013-02-03 09:32:00,35.0,16.0,-100.00,NW,312,3.0,10.0,46,0.00,,,0.00,82.000000,,2013-02-03 16:32:00,
2013-02-03 10:02:00,45.0,16.0,-100.00,SSW,213,6.0,13.0,31,0.00,,,0.00,274.000000,,2013-02-03 17:02:00,
2013-02-03 10:11:00,45.0,16.0,-100.00,SSW,213,6.0,13.0,31,0.00,,,0.00,274.000000,,2013-02-03 17:11:00,
2013-02-03 10:22:00,45.0,16.0,-100.00,SSW,213,6.0,13.0,31,0.00,,,0.00,274.000000,,2013-02-03 17:22:00,
2013-02-03 10:32:00,45.0,16.0,-100.00,SSW,213,6.0,13.0,31,0.00,,,0.00,274.000000,,2013-02-03 17:32:00,
2013-02-03 10:52:00,50.0,12.0,-100.00,WNW,285,6.0,16.0,21,0.00,,,0.00,429.000000,,2013-02-03 17:52:00,
2013-02-03 11:03:00,50.0,12.0,-100.00,WNW,285,6.0,16.0,21,0.00,,,0.00,429.000000,,2013-02-03 18:03:00,
2013-02-03 11:12:00,50.0,12.0,-100.00,WNW,285,6.0,16.0,21,0.00,,,0.00,429.000000,,2013-02-03 18:12:00,
2013-02-03 11:23:00,50.0,12.0,-100.00,WNW,285,6.0,16.0,21,0.00,,,0.00,429.000000,,2013-02-03 18:23:00,
2013-02-03 11:32:00,50.0,12.0,-100.00,WNW,285,6.0,16.0,21,0.00,,,0.00,429.000000,,2013-02-03 18:32:00,
2013-02-03 12:02:00,51.0,9.0,-100.00,West,266,8.0,21.0,18,0.00,,,0.00,472.000000,,2013-02-03 19:02:00,
2013-02-03 12:11:00,51.0,9.0,-100.00,West,266,8.0,21.0,18,0.00,,,0.00,472.000000,,2013-02-03 19:11:00,
2013-02-03 12:22:00,51.0,9.0,-100.00,West,266,8.0,21.0,18,0.00,,,0.00,472.000000,,2013-02-03 19:22:00,
2013-02-03 12:32:00,51.0,9.0,-100.00,West,266,8.0,21.0,18,0.00,,,0.00,472.000000,,2013-02-03 19:32:00,
2013-02-03 13:01:00,52.0,9.0,-100.00,NW,304,7.0,21.0,17,0.00,,,0.00,452.000000,,2013-02-03 20:01:00,
2013-02-03 13:12:00,52.0,9.0,-100.00,NW,304,7.0,21.0,17,0.00,,,0.00,452.000000,,2013-02-03 20:12:00,
2013-02-03 13:21:00,52.0,9.0,-100.00,NW,304,7.0,21.0,17,0.00,,,0.00,452.000000,,2013-02-03 20:21:00,
2013-02-03 13:32:00,52.0,9.0,-100.00,NW,304,7.0,21.0,17,0.00,,,0.00,452.000000,,2013-02-03 20:32:00,
2013-02-03 14:03:00,50.0,6.0,-100.00,NW,322,11.0,22.0,16,0.00,,,0.00,361.000000,,2013-02-03 21:03:00,
2013-02-03 14:11:00,50.0,6.0,-100.00,NW,322,11.0,22.0,16,0.00,,,0.00,361.000000,,2013-02-03 21:11:00,
2013-02-03 14:21:00,50.0,6.0,-100.00,NW,322,11.0,22.0,16,0.00,,,0.00,361.000000,,2013-02-03 21:21:00,
2013-02-03 14:32:00,50.0,6.0,-100.00,NW,322,11.0,22.0,16,0.00,,,0.00,361.000000,,2013-02-03 21:32:00,
2013-02-03 14:52:00,50.0,6.0,-100.00,NW,308,13.0,27.0,16,0.00,,,0.00,336.000000,,2013-02-03 21:52:00,
2013-02-03 15:01:00,50.0,6.0,-100.00,NW,308,13.0,27.0,16,0.00,,,0.00,336.000000,,2013-02-03 22:01:00,
2013-02-03 15:11:00,50.0,6.0,-100.00,NW,308,13.0,27.0,16,0.00,,,0.00,336.000000,,2013-02-03 22:11:00,
2013-02-03 15:21:00,50.0,6.0,-100.00,NW,308,13.0,27.0,16,0.00,,,0.00,336.000000,,2013-02-03 22:21:00,
2013-02-03 15:32:00,50.0,6.0,-100.00,NW,308,13.0,27.0,16,0.00,,,0.00,336.000000,,2013-02-03 22:32:00,
2013-02-03 16:01:00,47.0,8.0,-100.00,NNW,330,7.0,29.0,20,0.00,,,0.00,71.000000,,2013-02-03 23:01:00,
2013-02-03 16:12:00,47.0,8.0,-100.00,NNW,330,7.0,29.0,20,0.00,,,0.00,71.000000,,2013-02-03 23:12:00,
2013-02-03 16:22:00,47.0,8.0,-100.00,NNW,330,7.0,29.0,20,0.00,,,0.00,71.000000,,2013-02-03 23:22:00,
2013-02-03 16:32:00,47.0,8.0,-100.00,NNW,330,7.0,29.0,20,0.00,,,0.00,71.000000,,2013-02-03 23:32:00,
2013-02-03 17:02:00,44.0,10.0,-100.00,NW,324,8.0,18.0,25,0.00,,,0.00,59.000000,,2013-02-04 00:02:00,
2013-02-03 17:11:00,44.0,10.0,-100.00,NW,324,8.0,18.0,25,0.00,,,0.00,59.000000,,2013-02-04 00:11:00,
2013-02-03 17:22:00,44.0,10.0,-100.00,NW,324,8.0,18.0,25,0.00,,,0.00,59.000000,,2013-02-04 00:22:00,
2013-02-03 17:32:00,44.0,10.0,-100.00,NW,324,8.0,18.0,25,0.00,,,0.00,59.000000,,2013-02-04 00:32:00,
2013-02-03 18:01:00,41.0,13.0,-100.00,NNW,334,6.0,16.0,31,0.00,,,0.00,10.000000,,2013-02-04 01:01:00,
2013-02-03 18:11:00,41.0,13.0,-100.00,NNW,334,6.0,16.0,31,0.00,,,0.00,10.000000,,2013-02-04 01:11:00,
2013-02-03 18:21:00,41.0,13.0,-100.00,NNW,334,6.0,16.0,31,0.00,,,0.00,10.000000,,2013-02-04 01:21:00,
2013-02-03 18:31:00,41.0,13.0,-100.00,NNW,334,6.0,16.0,31,0.00,,,0.00,10.000000,,2013-02-04 01:31:00,
2013-02-03 18:52:00,39.0,14.0,-100.00,NW,324,6.0,18.0,36,0.00,,,0.00,1.000000,,2013-02-04 01:52:00,
2013-02-03 19:02:00,39.0,14.0,-100.00,NW,324,6.0,18.0,36,0.00,,,0.00,1.000000,,2013-02-04 02:02:00,
2013-02-03 19:11:00,39.0,14.0,-100.00,NW,324,6.0,18.0,36,0.00,,,0.00,1.000000,,2013-02-04 02:11:00,
2013-02-03 19:21:00,39.0,14.0,-100.00,NW,324,6.0,18.0,36,0.00,,,0.00,1.000000,,2013-02-04 02:21:00,
2013-02-03 19:31:00,39.0,14.0,-100.00,NW,324,6.0,18.0,36,0.00,,,0.00,1.000000,,2013-02-04 02:31:00,
2013-02-03 19:52:00,37.0,15.0,-100.00,NNW,334,8.0,17.0,40,0.00,,,0.00,0.000000,,2013-02-04 02:52:00,
2013-02-03 20:02:00,37.0,15.0,-100.00,NNW,334,8.0,17.0,40,0.00,,,0.00,0.000000,,2013-02-04 03:02:00,
2013-02-03 20:11:00,37.0,15.0,-100.00,NNW,334,8.0,17.0,40,0.00,,,0.00,0.000000,,2013-02-04 03:11:00,
2013-02-03 20:21:00,37.0,15.0,-100.00,NNW,334,8.0,17.0,40,0.00,,,0.00,0.000000,,2013-02-04 03:21:00,
2013-02-03 20:32:00,37.0,15.0,-100.00,NNW,334,8.0,17.0,40,0.00,,,0.00,0.000000,,2013-02-04 03:32:00,
2013-02-03 20:52:00,35.0,16.0,-100.00,NNW,332,4.0,14.0,45,0.00,,,0.00,1.000000,,2013-02-04 03:52:00,
2013-02-03 21:01:00,35.0,16.0,-100.00,NNW,332,4.0,14.0,45,0.00,,,0.00,1.000000,,2013-02-04 04:01:00,
2013-02-03 21:11:00,35.0,16.0,-100.00,NNW,332,4.0,14.0,45,0.00,,,0.00,1.000000,,2013-02-04 04:11:00,
2013-02-03 21:21:00,35.0,16.0,-100.00,NNW,332,4.0,14.0,45,0.00,,,0.00,1.000000,,2013-02-04 04:21:00,
2013-02-03 21:32:00,35.0,16.0,-100.00,NNW,332,4.0,14.0,45,0.00,,,0.00,1.000000,,2013-02-04 04:32:00,
2013-02-03 22:03:00,34.0,16.0,-100.00,NW,314,4.0,10.0,47,0.00,,,0.00,0.000000,,2013-02-04 05:03:00,
2013-02-03 22:11:00,34.0,16.0,-100.00,NW,314,4.0,10.0,47,0.00,,,0.00,0.000000,,2013-02-04 05:11:00,
2013-02-03 22:22:00,34.0,16.0,-100.00,NW,314,4.0,10.0,47,0.00,,,0.00,0.000000,,2013-02-04 05:22:00,
2013-02-03 22:33:00,34.0,16.0,-100.00,NW,314,4.0,10.0,47,0.00,,,0.00,0.000000,,2013-02-04 05:33:00,
2013-02-03 23:02:00,33.0,16.0,-100.00,WNW,283,4.0,12.0,50,0.00,,,0.00,0.000000,,2013-02-04 06:02:00,
2013-02-03 23:11:00,33.0,16.0,-100.00,WNW,283,4.0,12.0,50,0.00,,,0.00,0.000000,,2013-02-04 06:11:00,
2013-02-03 23:21:00,33.0,16.0,-100.00,WNW,283,4.0,12.0,50,0.00,,,0.00,0.000000,,2013-02-04 06:21:00,
2013-02-03 23:32:00,33.0,16.0,-100.00,WNW,283,4.0,12.0,50,0.00,,,0.00,0.000000,,2013-02-04 06:32:00,
2013-02-03 23:52:00,31.0,17.0,-100.00,WNW,286,4.0,7.0,55,0.00,,,0.00,0.000000,,2013-02-04 06:52:00,